sensor_id;sensor_type;location;lat;lon;timestamp;temperature;humidity
5041;DHT22;2539;52.568;13.364;2023-03-01T00:01:05;-1.20;99.90
5041;DHT22;2539;52.568;13.364;2023-03-01T00:03:32;-1.30;99.90
5041;DHT22;2539;52.568;13.364;2023-03-01T00:05:58;-1.40;99.90
5041;DHT22;2539;52.568;13.364;2023-03-01T00:08:25;-1.50;99.90
5041;DHT22;2539;52.568;13.364;2023-03-01T00:11:21;-1.60;99.90
5041;DHT22;2539;52.568;13.364;2023-03-01T00:13:47;-1.60;99.90
5041;DHT22;2539;52.568;13.364;2023-03-01T00:16:20;-1.70;99.90
5041;DHT22;2539;52.568;13.364;2023-03-01T00:18:46;-1.70;99.90
5041;DHT22;2539;52.568;13.364;2023-03-01T00:21:12;-1.50;99.90
5041;DHT22;2539;52.568;13.364;2023-03-01T00:23:39;-1.40;99.90
5041;DHT22;2539;52.568;13.364;2023-03-01T00:26:08;-1.40;99.90
5041;DHT22;2539;52.568;13.364;2023-03-01T00:28:34;-1.30;99.90
5041;DHT22;2539;52.568;13.364;2023-03-01T00:31:15;-1.30;99.90
5041;DHT22;2539;52.568;13.364;2023-03-01T00:33:42;-1.30;99.90
5041;DHT22;2539;52.568;13.364;2023-03-01T00:36:10;-1.40;99.90
5041;DHT22;2539;52.568;13.364;2023-03-01T00:38:38;-1.30;99.90
5041;DHT22;2539;52.568;13.364;2023-03-01T00:41:10;-1.30;99.90
5041;DHT22;2539;52.568;13.364;2023-03-01T00:43:37;-1.40;99.90
5041;DHT22;2539;52.568;13.364;2023-03-01T00:46:04;-1.40;99.90
5041;DHT22;2539;52.568;13.364;2023-03-01T00:48:31;-1.40;99.90
5041;DHT22;2539;52.568;13.364;2023-03-01T00:50:57;-1.40;99.90
5041;DHT22;2539;52.568;13.364;2023-03-01T00:53:23;-1.30;99.90
5041;DHT22;2539;52.568;13.364;2023-03-01T00:55:49;-1.30;99.90
5041;DHT22;2539;52.568;13.364;2023-03-01T00:58:15;-1.40;99.90
5041;DHT22;2539;52.568;13.364;2023-03-01T01:00:42;-1.40;99.90
5041;DHT22;2539;52.568;13.364;2023-03-01T01:03:14;-1.50;99.90
5041;DHT22;2539;52.568;13.364;2023-03-01T01:05:40;-1.50;99.90
5041;DHT22;2539;52.568;13.364;2023-03-01T01:08:06;-1.50;99.90
5041;DHT22;2539;52.568;13.364;2023-03-01T01:10:36;-1.50;99.90
5041;DHT22;2539;52.568;13.364;2023-03-01T01:13:03;-1.50;99.90
5041;DHT22;2539;52.568;13.364;2023-03-01T01:15:33;-1.50;99.90
5041;DHT22;2539;52.568;13.364;2023-03-01T01:18:02;-1.40;99.90
5041;DHT22;2539;52.568;13.364;2023-03-01T01:20:28;-1.50;99.90
5041;DHT22;2539;52.568;13.364;2023-03-01T01:22:55;-1.50;99.90
5041;DHT22;2539;52.568;13.364;2023-03-01T01:25:26;-1.60;99.90
5041;DHT22;2539;52.568;13.364;2023-03-01T01:27:52;-1.60;99.90
5041;DHT22;2539;52.568;13.364;2023-03-01T01:30:19;-1.60;99.90
5041;DHT22;2539;52.568;13.364;2023-03-01T01:32:46;-1.70;99.90
5041;DHT22;2539;52.568;13.364;2023-03-01T01:35:11;-1.60;99.90
5041;DHT22;2539;52.568;13.364;2023-03-01T01:37:37;-1.60;99.90
5041;DHT22;2539;52.568;13.364;2023-03-01T01:40:04;-1.60;99.90
5041;DHT22;2539;52.568;13.364;2023-03-01T01:42:31;-1.60;99.90
5041;DHT22;2539;52.568;13.364;2023-03-01T01:45:33;-1.70;99.90
5041;DHT22;2539;52.568;13.364;2023-03-01T01:48:03;-1.70;99.90
5041;DHT22;2539;52.568;13.364;2023-03-01T01:50:31;-1.70;99.90
5041;DHT22;2539;52.568;13.364;2023-03-01T01:53:07;-1.80;99.90
5041;DHT22;2539;52.568;13.364;2023-03-01T01:55:36;-1.80;99.90
5041;DHT22;2539;52.568;13.364;2023-03-01T01:58:07;-1.80;99.90
5041;DHT22;2539;52.568;13.364;2023-03-01T02:00:35;-1.80;99.90
5041;DHT22;2539;52.568;13.364;2023-03-01T02:03:10;-1.80;99.90
5041;DHT22;2539;52.568;13.364;2023-03-01T02:05:56;-1.80;99.90
5041;DHT22;2539;52.568;13.364;2023-03-01T02:08:27;-1.80;99.90
5041;DHT22;2539;52.568;13.364;2023-03-01T02:10:55;-1.80;99.90
5041;DHT22;2539;52.568;13.364;2023-03-01T02:13:22;-1.90;99.90
5041;DHT22;2539;52.568;13.364;2023-03-01T02:15:49;-1.90;99.90
5041;DHT22;2539;52.568;13.364;2023-03-01T02:18:18;-2.00;99.90
5041;DHT22;2539;52.568;13.364;2023-03-01T02:23:23;-2.10;99.90
5041;DHT22;2539;52.568;13.364;2023-03-01T02:26:02;-2.10;99.90
5041;DHT22;2539;52.568;13.364;2023-03-01T02:28:34;-2.20;99.90
5041;DHT22;2539;52.568;13.364;2023-03-01T02:31:01;-2.20;99.90
5041;DHT22;2539;52.568;13.364;2023-03-01T02:36:26;-2.10;99.90
5041;DHT22;2539;52.568;13.364;2023-03-01T02:38:57;-2.10;99.90
5041;DHT22;2539;52.568;13.364;2023-03-01T02:41:26;-2.00;99.90
5041;DHT22;2539;52.568;13.364;2023-03-01T02:43:55;-2.00;99.90
5041;DHT22;2539;52.568;13.364;2023-03-01T02:46:24;-1.90;99.90
5041;DHT22;2539;52.568;13.364;2023-03-01T02:48:53;-2.00;99.90
5041;DHT22;2539;52.568;13.364;2023-03-01T02:54:20;-2.00;99.90
5041;DHT22;2539;52.568;13.364;2023-03-01T02:56:48;-2.10;99.90
5041;DHT22;2539;52.568;13.364;2023-03-01T02:59:18;-2.20;99.90
5041;DHT22;2539;52.568;13.364;2023-03-01T03:01:45;-2.30;99.90
5041;DHT22;2539;52.568;13.364;2023-03-01T03:04:18;-2.40;99.90
5041;DHT22;2539;52.568;13.364;2023-03-01T03:06:45;-2.30;99.90
5041;DHT22;2539;52.568;13.364;2023-03-01T03:09:13;-2.20;99.90
5041;DHT22;2539;52.568;13.364;2023-03-01T03:11:39;-2.20;99.90
5041;DHT22;2539;52.568;13.364;2023-03-01T03:14:11;-2.10;99.90
5041;DHT22;2539;52.568;13.364;2023-03-01T03:16:44;-2.00;99.90
5041;DHT22;2539;52.568;13.364;2023-03-01T03:19:10;-2.00;99.90
5041;DHT22;2539;52.568;13.364;2023-03-01T03:21:37;-2.00;99.90
5041;DHT22;2539;52.568;13.364;2023-03-01T03:24:04;-2.00;99.90
5041;DHT22;2539;52.568;13.364;2023-03-01T03:26:31;-2.00;99.90
5041;DHT22;2539;52.568;13.364;2023-03-01T03:28:58;-2.10;99.90
5041;DHT22;2539;52.568;13.364;2023-03-01T03:31:25;-2.20;99.90
5041;DHT22;2539;52.568;13.364;2023-03-01T03:33:52;-2.30;99.90
5041;DHT22;2539;52.568;13.364;2023-03-01T03:36:20;-2.30;99.90
5041;DHT22;2539;52.568;13.364;2023-03-01T03:38:47;-2.30;99.90
5041;DHT22;2539;52.568;13.364;2023-03-01T03:41:13;-2.30;99.90
5041;DHT22;2539;52.568;13.364;2023-03-01T03:43:40;-2.40;99.90
5041;DHT22;2539;52.568;13.364;2023-03-01T03:46:09;-2.30;99.90
5041;DHT22;2539;52.568;13.364;2023-03-01T03:48:39;-2.30;99.90
5041;DHT22;2539;52.568;13.364;2023-03-01T03:51:05;-2.30;99.90
5041;DHT22;2539;52.568;13.364;2023-03-01T03:53:32;-2.30;99.90
5041;DHT22;2539;52.568;13.364;2023-03-01T03:55:57;-2.40;99.90
5041;DHT22;2539;52.568;13.364;2023-03-01T03:58:24;-2.50;99.90
5041;DHT22;2539;52.568;13.364;2023-03-01T04:00:53;-2.40;99.90
5041;DHT22;2539;52.568;13.364;2023-03-01T04:03:22;-2.40;99.90
5041;DHT22;2539;52.568;13.364;2023-03-01T04:05:50;-2.30;99.90
5041;DHT22;2539;52.568;13.364;2023-03-01T04:08:18;-2.30;99.90
5041;DHT22;2539;52.568;13.364;2023-03-01T04:10:49;-2.30;99.90
5041;DHT22;2539;52.568;13.364;2023-03-01T04:13:18;-2.30;99.90
5041;DHT22;2539;52.568;13.364;2023-03-01T04:15:48;-2.20;99.90
5041;DHT22;2539;52.568;13.364;2023-03-01T04:18:16;-2.30;99.90
5041;DHT22;2539;52.568;13.364;2023-03-01T04:20:43;-2.30;99.90
5041;DHT22;2539;52.568;13.364;2023-03-01T04:23:11;-2.30;99.90
5041;DHT22;2539;52.568;13.364;2023-03-01T04:25:54;-2.40;99.90
5041;DHT22;2539;52.568;13.364;2023-03-01T04:28:26;-2.50;99.90
5041;DHT22;2539;52.568;13.364;2023-03-01T04:30:54;-2.60;99.90
5041;DHT22;2539;52.568;13.364;2023-03-01T04:33:21;-2.70;99.90
5041;DHT22;2539;52.568;13.364;2023-03-01T04:35:48;-2.70;99.90
5041;DHT22;2539;52.568;13.364;2023-03-01T04:38:19;-2.70;99.90
5041;DHT22;2539;52.568;13.364;2023-03-01T04:40:45;-2.70;99.90
5041;DHT22;2539;52.568;13.364;2023-03-01T04:43:12;-2.60;99.90
5041;DHT22;2539;52.568;13.364;2023-03-01T04:45:41;-2.60;99.90
5041;DHT22;2539;52.568;13.364;2023-03-01T04:48:08;-2.50;99.90
5041;DHT22;2539;52.568;13.364;2023-03-01T04:50:34;-2.50;99.90
5041;DHT22;2539;52.568;13.364;2023-03-01T04:53:01;-2.40;99.90
5041;DHT22;2539;52.568;13.364;2023-03-01T04:55:28;-2.40;99.90
5041;DHT22;2539;52.568;13.364;2023-03-01T04:57:54;-2.40;99.90
5041;DHT22;2539;52.568;13.364;2023-03-01T05:00:22;-2.50;99.90
5041;DHT22;2539;52.568;13.364;2023-03-01T05:02:57;-2.40;99.90
5041;DHT22;2539;52.568;13.364;2023-03-01T05:05:30;-2.40;99.90
5041;DHT22;2539;52.568;13.364;2023-03-01T05:07:59;-2.40;99.90
5041;DHT22;2539;52.568;13.364;2023-03-01T05:10:27;-2.40;99.90
5041;DHT22;2539;52.568;13.364;2023-03-01T05:12:57;-2.50;99.90
5041;DHT22;2539;52.568;13.364;2023-03-01T05:15:28;-2.50;99.90
5041;DHT22;2539;52.568;13.364;2023-03-01T05:17:57;-2.60;99.90
5041;DHT22;2539;52.568;13.364;2023-03-01T05:20:28;-2.60;99.90
5041;DHT22;2539;52.568;13.364;2023-03-01T05:22:57;-2.70;99.90
5041;DHT22;2539;52.568;13.364;2023-03-01T05:25:23;-2.80;99.90
5041;DHT22;2539;52.568;13.364;2023-03-01T05:27:49;-2.70;99.90
5041;DHT22;2539;52.568;13.364;2023-03-01T05:30:17;-2.70;99.90
5041;DHT22;2539;52.568;13.364;2023-03-01T05:32:46;-2.70;99.90
5041;DHT22;2539;52.568;13.364;2023-03-01T05:35:14;-2.80;99.90
5041;DHT22;2539;52.568;13.364;2023-03-01T05:37:46;-2.70;99.90
5041;DHT22;2539;52.568;13.364;2023-03-01T05:40:17;-2.70;99.90
5041;DHT22;2539;52.568;13.364;2023-03-01T05:42:45;-2.70;99.90
5041;DHT22;2539;52.568;13.364;2023-03-01T05:45:12;-2.80;99.90
5041;DHT22;2539;52.568;13.364;2023-03-01T05:47:40;-2.60;99.90
5041;DHT22;2539;52.568;13.364;2023-03-01T05:50:14;-2.80;99.90
5041;DHT22;2539;52.568;13.364;2023-03-01T05:52:50;-2.80;99.90
5041;DHT22;2539;52.568;13.364;2023-03-01T05:55:19;-2.80;99.90
5041;DHT22;2539;52.568;13.364;2023-03-01T05:57:47;-2.80;99.90
5041;DHT22;2539;52.568;13.364;2023-03-01T06:00:14;-2.70;99.90
5041;DHT22;2539;52.568;13.364;2023-03-01T06:02:41;-2.70;99.90
5041;DHT22;2539;52.568;13.364;2023-03-01T06:05:09;-2.70;99.90
5041;DHT22;2539;52.568;13.364;2023-03-01T06:07:36;-2.70;99.90
5041;DHT22;2539;52.568;13.364;2023-03-01T06:10:04;-2.70;99.90
5041;DHT22;2539;52.568;13.364;2023-03-01T06:12:35;-2.60;99.90
5041;DHT22;2539;52.568;13.364;2023-03-01T06:15:02;-2.60;99.90
5041;DHT22;2539;52.568;13.364;2023-03-01T06:17:29;-2.60;99.90
5041;DHT22;2539;52.568;13.364;2023-03-01T06:19:56;-2.50;99.90
5041;DHT22;2539;52.568;13.364;2023-03-01T06:22:22;-2.60;99.90
5041;DHT22;2539;52.568;13.364;2023-03-01T06:24:49;-2.50;99.90
5041;DHT22;2539;52.568;13.364;2023-03-01T06:27:16;-2.50;99.90
5041;DHT22;2539;52.568;13.364;2023-03-01T06:29:42;-2.50;99.90
5041;DHT22;2539;52.568;13.364;2023-03-01T06:32:08;-2.60;99.90
5041;DHT22;2539;52.568;13.364;2023-03-01T06:34:34;-2.60;99.90
5041;DHT22;2539;52.568;13.364;2023-03-01T06:37:01;-2.50;99.90
5041;DHT22;2539;52.568;13.364;2023-03-01T06:39:32;-2.50;99.90
5041;DHT22;2539;52.568;13.364;2023-03-01T06:41:58;-2.40;99.90
5041;DHT22;2539;52.568;13.364;2023-03-01T06:44:25;-2.40;99.90
5041;DHT22;2539;52.568;13.364;2023-03-01T06:46:51;-2.30;99.90
5041;DHT22;2539;52.568;13.364;2023-03-01T06:49:17;-2.20;99.90
5041;DHT22;2539;52.568;13.364;2023-03-01T06:51:44;-2.10;99.90
5041;DHT22;2539;52.568;13.364;2023-03-01T06:54:10;-1.90;99.90
5041;DHT22;2539;52.568;13.364;2023-03-01T06:56:37;-1.80;99.90
5041;DHT22;2539;52.568;13.364;2023-03-01T06:59:03;-1.70;99.90
5041;DHT22;2539;52.568;13.364;2023-03-01T07:01:30;-1.60;99.90
5041;DHT22;2539;52.568;13.364;2023-03-01T07:03:57;-1.60;99.90
5041;DHT22;2539;52.568;13.364;2023-03-01T07:06:24;-1.60;99.90
5041;DHT22;2539;52.568;13.364;2023-03-01T07:08:50;-1.50;99.90
5041;DHT22;2539;52.568;13.364;2023-03-01T07:11:16;-1.20;99.90
5041;DHT22;2539;52.568;13.364;2023-03-01T07:13:43;-1.40;99.90
5041;DHT22;2539;52.568;13.364;2023-03-01T07:16:09;-1.20;99.90
5041;DHT22;2539;52.568;13.364;2023-03-01T07:18:36;-1.10;99.90
5041;DHT22;2539;52.568;13.364;2023-03-01T07:21:06;-1.00;99.90
5041;DHT22;2539;52.568;13.364;2023-03-01T07:23:33;-0.90;99.90
5041;DHT22;2539;52.568;13.364;2023-03-01T07:26:00;-0.80;99.90
5041;DHT22;2539;52.568;13.364;2023-03-01T07:28:27;-0.60;99.90
5041;DHT22;2539;52.568;13.364;2023-03-01T07:30:54;-0.50;99.90
5041;DHT22;2539;52.568;13.364;2023-03-01T07:33:20;-0.30;99.90
5041;DHT22;2539;52.568;13.364;2023-03-01T07:35:47;-0.10;99.90
5041;DHT22;2539;52.568;13.364;2023-03-01T07:38:13;0.10;99.90
5041;DHT22;2539;52.568;13.364;2023-03-01T07:40:39;0.30;99.90
5041;DHT22;2539;52.568;13.364;2023-03-01T07:43:05;0.30;99.90
5041;DHT22;2539;52.568;13.364;2023-03-01T07:45:31;0.40;99.90
5041;DHT22;2539;52.568;13.364;2023-03-01T07:47:58;0.40;99.90
5041;DHT22;2539;52.568;13.364;2023-03-01T07:50:24;0.30;99.90
5041;DHT22;2539;52.568;13.364;2023-03-01T07:52:50;0.30;99.90
5041;DHT22;2539;52.568;13.364;2023-03-01T07:55:17;0.40;99.90
5041;DHT22;2539;52.568;13.364;2023-03-01T07:57:43;0.40;99.90
5041;DHT22;2539;52.568;13.364;2023-03-01T08:00:11;0.50;99.90
5041;DHT22;2539;52.568;13.364;2023-03-01T08:02:36;0.60;99.90
5041;DHT22;2539;52.568;13.364;2023-03-01T08:05:03;0.70;99.90
5041;DHT22;2539;52.568;13.364;2023-03-01T08:07:28;0.80;99.90
5041;DHT22;2539;52.568;13.364;2023-03-01T08:09:55;1.00;99.90
5041;DHT22;2539;52.568;13.364;2023-03-01T08:12:21;1.00;99.90
5041;DHT22;2539;52.568;13.364;2023-03-01T08:14:47;1.10;99.90
5041;DHT22;2539;52.568;13.364;2023-03-01T08:17:16;1.30;99.90
5041;DHT22;2539;52.568;13.364;2023-03-01T08:19:42;1.40;99.90
5041;DHT22;2539;52.568;13.364;2023-03-01T08:22:08;1.50;99.90
5041;DHT22;2539;52.568;13.364;2023-03-01T08:24:33;1.60;99.90
5041;DHT22;2539;52.568;13.364;2023-03-01T08:27:00;1.70;99.90
5041;DHT22;2539;52.568;13.364;2023-03-01T08:29:31;1.80;99.90
5041;DHT22;2539;52.568;13.364;2023-03-01T08:31:57;1.90;99.90
5041;DHT22;2539;52.568;13.364;2023-03-01T08:34:23;2.00;99.90
5041;DHT22;2539;52.568;13.364;2023-03-01T08:36:50;2.10;99.90
5041;DHT22;2539;52.568;13.364;2023-03-01T08:39:19;2.20;99.90
5041;DHT22;2539;52.568;13.364;2023-03-01T08:41:46;2.30;99.90
5041;DHT22;2539;52.568;13.364;2023-03-01T08:44:14;2.50;99.90
5041;DHT22;2539;52.568;13.364;2023-03-01T08:46:43;2.70;99.90
5041;DHT22;2539;52.568;13.364;2023-03-01T08:49:19;2.80;99.90
5041;DHT22;2539;52.568;13.364;2023-03-01T08:51:46;2.90;99.90
5041;DHT22;2539;52.568;13.364;2023-03-01T08:54:15;3.10;99.90
5041;DHT22;2539;52.568;13.364;2023-03-01T08:56:42;3.10;99.90
5041;DHT22;2539;52.568;13.364;2023-03-01T08:59:10;3.20;99.90
5041;DHT22;2539;52.568;13.364;2023-03-01T09:01:36;3.30;99.90
5041;DHT22;2539;52.568;13.364;2023-03-01T09:04:03;3.30;99.90
5041;DHT22;2539;52.568;13.364;2023-03-01T09:06:33;3.40;99.90
5041;DHT22;2539;52.568;13.364;2023-03-01T09:09:00;3.40;99.90
5041;DHT22;2539;52.568;13.364;2023-03-01T09:11:27;3.50;99.90
5041;DHT22;2539;52.568;13.364;2023-03-01T09:13:54;3.40;99.90
5041;DHT22;2539;52.568;13.364;2023-03-01T09:16:21;3.40;99.90
5041;DHT22;2539;52.568;13.364;2023-03-01T09:18:52;3.40;99.90
5041;DHT22;2539;52.568;13.364;2023-03-01T09:21:21;3.40;99.90
5041;DHT22;2539;52.568;13.364;2023-03-01T09:23:48;3.60;99.90
5041;DHT22;2539;52.568;13.364;2023-03-01T09:26:19;3.60;99.90
5041;DHT22;2539;52.568;13.364;2023-03-01T09:28:47;3.70;99.90
5041;DHT22;2539;52.568;13.364;2023-03-01T09:31:14;3.70;99.90
5041;DHT22;2539;52.568;13.364;2023-03-01T09:33:41;3.80;99.90
5041;DHT22;2539;52.568;13.364;2023-03-01T09:36:11;3.90;99.90
5041;DHT22;2539;52.568;13.364;2023-03-01T09:38:38;4.00;99.90
5041;DHT22;2539;52.568;13.364;2023-03-01T09:41:11;4.10;99.90
5041;DHT22;2539;52.568;13.364;2023-03-01T09:43:50;5.00;99.90
5041;DHT22;2539;52.568;13.364;2023-03-01T09:46:22;4.30;99.90
5041;DHT22;2539;52.568;13.364;2023-03-01T09:48:54;4.40;99.90
5041;DHT22;2539;52.568;13.364;2023-03-01T09:51:39;4.60;99.90
5041;DHT22;2539;52.568;13.364;2023-03-01T09:54:06;4.60;99.90
5041;DHT22;2539;52.568;13.364;2023-03-01T09:56:37;4.70;99.90
5041;DHT22;2539;52.568;13.364;2023-03-01T10:02:20;4.70;99.90
5041;DHT22;2539;52.568;13.364;2023-03-01T10:04:50;4.80;99.90
5041;DHT22;2539;52.568;13.364;2023-03-01T10:10:35;5.00;99.90
5041;DHT22;2539;52.568;13.364;2023-03-01T10:15:52;5.00;99.90
5041;DHT22;2539;52.568;13.364;2023-03-01T10:18:25;5.00;99.90
5041;DHT22;2539;52.568;13.364;2023-03-01T10:20:56;5.00;99.90
5041;DHT22;2539;52.568;13.364;2023-03-01T10:23:25;5.00;99.90
5041;DHT22;2539;52.568;13.364;2023-03-01T10:26:29;5.10;99.90
5041;DHT22;2539;52.568;13.364;2023-03-01T10:29:00;5.20;99.90
5041;DHT22;2539;52.568;13.364;2023-03-01T10:34:12;5.20;99.90
5041;DHT22;2539;52.568;13.364;2023-03-01T10:36:39;5.20;99.90
5041;DHT22;2539;52.568;13.364;2023-03-01T10:39:21;5.40;99.90
5041;DHT22;2539;52.568;13.364;2023-03-01T10:42:00;5.40;99.90
5041;DHT22;2539;52.568;13.364;2023-03-01T10:44:46;5.40;99.90
5041;DHT22;2539;52.568;13.364;2023-03-01T10:47:24;5.50;99.90
5041;DHT22;2539;52.568;13.364;2023-03-01T10:49:57;5.60;99.90
5041;DHT22;2539;52.568;13.364;2023-03-01T10:52:31;5.60;99.90
5041;DHT22;2539;52.568;13.364;2023-03-01T10:55:17;5.50;99.90
5041;DHT22;2539;52.568;13.364;2023-03-01T10:57:48;5.60;99.90
5041;DHT22;2539;52.568;13.364;2023-03-01T11:00:21;5.70;99.90
5041;DHT22;2539;52.568;13.364;2023-03-01T11:02:51;5.70;99.90
5041;DHT22;2539;52.568;13.364;2023-03-01T11:05:21;5.70;99.90
5041;DHT22;2539;52.568;13.364;2023-03-01T11:07:52;5.60;99.90
5041;DHT22;2539;52.568;13.364;2023-03-01T11:10:24;5.50;99.90
5041;DHT22;2539;52.568;13.364;2023-03-01T11:13:07;5.70;99.90
5041;DHT22;2539;52.568;13.364;2023-03-01T11:15:34;5.70;99.90
5041;DHT22;2539;52.568;13.364;2023-03-01T11:18:01;5.80;99.90
5041;DHT22;2539;52.568;13.364;2023-03-01T11:20:32;5.80;99.90
5041;DHT22;2539;52.568;13.364;2023-03-01T11:23:13;5.70;99.90
5041;DHT22;2539;52.568;13.364;2023-03-01T11:25:43;5.90;99.90
5041;DHT22;2539;52.568;13.364;2023-03-01T11:28:16;5.90;99.90
5041;DHT22;2539;52.568;13.364;2023-03-01T11:31:00;6.10;99.90
5041;DHT22;2539;52.568;13.364;2023-03-01T11:36:35;6.30;99.90
5041;DHT22;2539;52.568;13.364;2023-03-01T11:39:22;6.30;99.30
5041;DHT22;2539;52.568;13.364;2023-03-01T11:42:06;6.40;99.10
5041;DHT22;2539;52.568;13.364;2023-03-01T11:44:36;6.40;97.50
5041;DHT22;2539;52.568;13.364;2023-03-01T11:52:50;6.40;98.00
5041;DHT22;2539;52.568;13.364;2023-03-01T12:01:13;6.50;95.10
5041;DHT22;2539;52.568;13.364;2023-03-01T12:03:54;6.60;95.10
5041;DHT22;2539;52.568;13.364;2023-03-01T12:06:50;6.70;94.80
5041;DHT22;2539;52.568;13.364;2023-03-01T12:09:31;6.60;92.90
5041;DHT22;2539;52.568;13.364;2023-03-01T12:17:33;6.60;93.70
5041;DHT22;2539;52.568;13.364;2023-03-01T12:20:32;6.70;93.90
5041;DHT22;2539;52.568;13.364;2023-03-01T12:23:23;6.80;92.90
5041;DHT22;2539;52.568;13.364;2023-03-01T12:26:34;6.90;92.50
5041;DHT22;2539;52.568;13.364;2023-03-01T12:29:17;6.90;91.40
5041;DHT22;2539;52.568;13.364;2023-03-01T12:34:26;7.00;90.40
5041;DHT22;2539;52.568;13.364;2023-03-01T12:37:35;7.00;89.00
5041;DHT22;2539;52.568;13.364;2023-03-01T12:43:08;7.10;89.70
5041;DHT22;2539;52.568;13.364;2023-03-01T12:51:14;7.10;90.00
5041;DHT22;2539;52.568;13.364;2023-03-01T12:53:45;7.20;87.90
5041;DHT22;2539;52.568;13.364;2023-03-01T12:56:21;7.20;88.40
5041;DHT22;2539;52.568;13.364;2023-03-01T12:59:23;7.30;87.80
5041;DHT22;2539;52.568;13.364;2023-03-01T13:02:32;7.30;87.10
5041;DHT22;2539;52.568;13.364;2023-03-01T13:07:58;7.20;89.70
5041;DHT22;2539;52.568;13.364;2023-03-01T13:10:40;7.20;90.60
5041;DHT22;2539;52.568;13.364;2023-03-01T13:13:22;7.20;91.30
5041;DHT22;2539;52.568;13.364;2023-03-01T13:15:49;7.30;91.30
5041;DHT22;2539;52.568;13.364;2023-03-01T13:20:50;7.40;90.90
5041;DHT22;2539;52.568;13.364;2023-03-01T13:31:05;6.90;89.50
5041;DHT22;2539;52.568;13.364;2023-03-01T13:36:00;5.60;87.70
5041;DHT22;2539;52.568;13.364;2023-03-01T13:38:46;6.90;89.70
5041;DHT22;2539;52.568;13.364;2023-03-01T13:41:14;6.90;88.40
5041;DHT22;2539;52.568;13.364;2023-03-01T13:43:42;7.00;88.70
5041;DHT22;2539;52.568;13.364;2023-03-01T13:48:38;7.10;89.60
5041;DHT22;2539;52.568;13.364;2023-03-01T13:51:08;7.20;89.30
5041;DHT22;2539;52.568;13.364;2023-03-01T13:53:39;7.10;88.90
5041;DHT22;2539;52.568;13.364;2023-03-01T13:56:24;7.20;88.60
5041;DHT22;2539;52.568;13.364;2023-03-01T13:58:54;7.20;88.00
5041;DHT22;2539;52.568;13.364;2023-03-01T14:01:28;7.20;85.10
5041;DHT22;2539;52.568;13.364;2023-03-01T14:03:55;7.30;85.50
5041;DHT22;2539;52.568;13.364;2023-03-01T14:06:27;7.40;87.10
5041;DHT22;2539;52.568;13.364;2023-03-01T14:09:04;7.40;88.60
5041;DHT22;2539;52.568;13.364;2023-03-01T14:14:19;7.50;90.00
5041;DHT22;2539;52.568;13.364;2023-03-01T14:17:12;7.50;90.30
5041;DHT22;2539;52.568;13.364;2023-03-01T14:19:43;7.40;90.30
5041;DHT22;2539;52.568;13.364;2023-03-01T14:22:15;7.40;90.40
5041;DHT22;2539;52.568;13.364;2023-03-01T14:24:51;7.40;90.50
5041;DHT22;2539;52.568;13.364;2023-03-01T14:27:18;7.40;90.50
5041;DHT22;2539;52.568;13.364;2023-03-01T14:29:58;7.40;91.00
5041;DHT22;2539;52.568;13.364;2023-03-01T14:32:27;7.40;91.40
5041;DHT22;2539;52.568;13.364;2023-03-01T14:34:54;7.50;91.30
5041;DHT22;2539;52.568;13.364;2023-03-01T14:37:29;7.40;91.10
5041;DHT22;2539;52.568;13.364;2023-03-01T14:39:57;7.40;91.40
5041;DHT22;2539;52.568;13.364;2023-03-01T14:42:28;7.40;91.60
5041;DHT22;2539;52.568;13.364;2023-03-01T14:44:57;7.40;92.00
5041;DHT22;2539;52.568;13.364;2023-03-01T14:47:30;7.50;90.80
5041;DHT22;2539;52.568;13.364;2023-03-01T14:50:27;7.50;90.60
5041;DHT22;2539;52.568;13.364;2023-03-01T14:52:57;7.50;90.40
5041;DHT22;2539;52.568;13.364;2023-03-01T14:57:52;7.30;90.70
5041;DHT22;2539;52.568;13.364;2023-03-01T15:00:27;7.30;91.00
5041;DHT22;2539;52.568;13.364;2023-03-01T15:02:56;7.30;91.40
5041;DHT22;2539;52.568;13.364;2023-03-01T15:05:32;7.30;91.80
5041;DHT22;2539;52.568;13.364;2023-03-01T15:08:01;7.30;92.00
5041;DHT22;2539;52.568;13.364;2023-03-01T15:10:31;7.30;92.20
5041;DHT22;2539;52.568;13.364;2023-03-01T15:13:13;7.30;92.30
5041;DHT22;2539;52.568;13.364;2023-03-01T15:15:45;7.40;91.70
5041;DHT22;2539;52.568;13.364;2023-03-01T15:18:16;7.40;91.80
5041;DHT22;2539;52.568;13.364;2023-03-01T15:20:43;7.40;92.00
5041;DHT22;2539;52.568;13.364;2023-03-01T15:23:19;7.20;92.30
5041;DHT22;2539;52.568;13.364;2023-03-01T15:25:46;7.20;92.50
5041;DHT22;2539;52.568;13.364;2023-03-01T15:28:19;7.10;92.80
5041;DHT22;2539;52.568;13.364;2023-03-01T15:30:58;7.10;93.10
5041;DHT22;2539;52.568;13.364;2023-03-01T15:35:58;7.20;93.20
5041;DHT22;2539;52.568;13.364;2023-03-01T15:40:57;7.20;93.40
5041;DHT22;2539;52.568;13.364;2023-03-01T15:43:45;7.20;93.70
5041;DHT22;2539;52.568;13.364;2023-03-01T15:46:34;7.10;93.80
5041;DHT22;2539;52.568;13.364;2023-03-01T15:49:24;7.10;94.10
5041;DHT22;2539;52.568;13.364;2023-03-01T15:51:52;7.10;94.80
5041;DHT22;2539;52.568;13.364;2023-03-01T15:54:22;7.00;95.60
5041;DHT22;2539;52.568;13.364;2023-03-01T15:56:49;7.00;95.70
5041;DHT22;2539;52.568;13.364;2023-03-01T15:59:17;7.00;96.20
5041;DHT22;2539;52.568;13.364;2023-03-01T16:01:45;7.00;96.60
5041;DHT22;2539;52.568;13.364;2023-03-01T16:04:12;6.90;97.00
5041;DHT22;2539;52.568;13.364;2023-03-01T16:06:42;6.90;98.00
5041;DHT22;2539;52.568;13.364;2023-03-01T16:09:08;6.80;98.20
5041;DHT22;2539;52.568;13.364;2023-03-01T16:11:35;6.80;98.90
5041;DHT22;2539;52.568;13.364;2023-03-01T16:14:03;6.80;99.10
5041;DHT22;2539;52.568;13.364;2023-03-01T16:16:29;6.70;99.50
5041;DHT22;2539;52.568;13.364;2023-03-01T16:18:55;6.60;99.90
5041;DHT22;2539;52.568;13.364;2023-03-01T16:21:23;6.60;99.90
5041;DHT22;2539;52.568;13.364;2023-03-01T16:23:51;6.60;99.90
5041;DHT22;2539;52.568;13.364;2023-03-01T16:26:18;6.50;99.90
5041;DHT22;2539;52.568;13.364;2023-03-01T16:28:45;6.50;99.90
5041;DHT22;2539;52.568;13.364;2023-03-01T16:31:17;6.60;99.90
5041;DHT22;2539;52.568;13.364;2023-03-01T16:33:44;6.60;99.90
5041;DHT22;2539;52.568;13.364;2023-03-01T16:36:17;6.60;99.90
5041;DHT22;2539;52.568;13.364;2023-03-01T16:38:44;6.50;99.90
5041;DHT22;2539;52.568;13.364;2023-03-01T16:41:13;6.40;99.90
5041;DHT22;2539;52.568;13.364;2023-03-01T16:43:40;6.30;99.90
5041;DHT22;2539;52.568;13.364;2023-03-01T16:46:11;6.20;99.90
5041;DHT22;2539;52.568;13.364;2023-03-01T16:48:38;6.10;99.90
5041;DHT22;2539;52.568;13.364;2023-03-01T16:51:06;6.00;99.90
5041;DHT22;2539;52.568;13.364;2023-03-01T16:53:34;5.90;99.90
5041;DHT22;2539;52.568;13.364;2023-03-01T16:56:03;5.80;99.90
5041;DHT22;2539;52.568;13.364;2023-03-01T16:58:30;5.70;99.90
5041;DHT22;2539;52.568;13.364;2023-03-01T17:00:56;5.70;99.90
5041;DHT22;2539;52.568;13.364;2023-03-01T17:03:24;5.60;99.90
5041;DHT22;2539;52.568;13.364;2023-03-01T17:05:52;5.50;99.90
5041;DHT22;2539;52.568;13.364;2023-03-01T17:08:18;5.40;99.90
5041;DHT22;2539;52.568;13.364;2023-03-01T17:10:44;5.30;99.90
5041;DHT22;2539;52.568;13.364;2023-03-01T17:13:10;5.20;99.90
5041;DHT22;2539;52.568;13.364;2023-03-01T17:15:41;5.10;99.90
5041;DHT22;2539;52.568;13.364;2023-03-01T17:18:08;5.30;99.90
5041;DHT22;2539;52.568;13.364;2023-03-01T17:20:35;5.10;99.90
5041;DHT22;2539;52.568;13.364;2023-03-01T17:23:02;5.00;99.90
5041;DHT22;2539;52.568;13.364;2023-03-01T17:25:28;5.10;99.90
5041;DHT22;2539;52.568;13.364;2023-03-01T17:27:55;5.10;99.90
5041;DHT22;2539;52.568;13.364;2023-03-01T17:30:21;5.00;99.90
5041;DHT22;2539;52.568;13.364;2023-03-01T17:32:47;5.00;99.90
5041;DHT22;2539;52.568;13.364;2023-03-01T17:35:14;5.00;99.90